createdAt,value
2023-04-18T05:58:49.595Z,72.36
2023-04-18T06:01:17.064Z,72.20
2023-04-18T06:03:44.503Z,71.20
2023-04-18T06:06:11.951Z,70.93
2023-04-18T06:08:39.191Z,70.22
2023-04-18T06:11:06.475Z,70.48
2023-04-18T06:13:33.720Z,71.31
2023-04-18T06:16:02.473Z,69.95
2023-04-18T06:18:29.609Z,70.90
2023-04-18T06:20:56.799Z,70.17
2023-04-18T06:23:23.970Z,68.49
2023-04-18T06:25:51.131Z,69.99
2023-04-18T06:28:18.698Z,69.79
2023-04-18T06:30:45.861Z,69.01
2023-04-18T06:33:14.572Z,70.00
2023-04-18T06:35:41.687Z,69.75
2023-04-18T06:38:08.875Z,70.23
2023-04-18T06:40:35.978Z,70.12
2023-04-18T06:43:03.118Z,69.28
2023-04-18T06:45:30.444Z,68.74
2023-04-18T06:47:57.713Z,68.83
2023-04-18T06:50:26.368Z,70.28
2023-04-18T06:52:53.703Z,71.30
2023-04-18T06:55:21.060Z,71.39
2023-04-18T06:57:48.340Z,71.37
2023-04-18T07:00:16.076Z,71.10
2023-04-18T07:02:43.441Z,69.46
2023-04-18T07:05:10.816Z,69.13
2023-04-18T07:07:39.403Z,69.00
2023-04-18T07:10:07.928Z,69.15
2023-04-18T07:12:35.222Z,69.85
2023-04-18T07:15:02.501Z,69.15
2023-04-18T07:17:29.834Z,70.12
2023-04-18T07:19:57.147Z,70.61
2023-04-18T07:22:24.370Z,70.14
2023-04-18T07:24:53.042Z,69.83
2023-04-18T07:27:20.372Z,69.69
2023-04-18T07:29:47.582Z,69.42
2023-04-18T07:32:14.850Z,69.31
2023-04-18T07:34:42.062Z,70.08
2023-04-18T07:37:09.317Z,69.36
2023-04-18T07:39:36.615Z,68.65
2023-04-18T07:42:05.502Z,69.08
2023-04-18T07:44:34.889Z,68.37
2023-04-18T07:47:02.271Z,68.92
2023-04-18T07:49:29.663Z,68.11
2023-04-18T07:51:56.946Z,68.17
2023-04-18T07:54:24.232Z,67.04
2023-04-18T07:56:51.576Z,68.75
2023-04-18T07:59:20.373Z,66.81
2023-04-18T08:01:47.698Z,65.44
2023-04-18T08:04:15.114Z,67.32
2023-04-18T08:06:42.492Z,67.14
2023-04-18T08:09:09.740Z,67.04
2023-04-18T08:11:37.056Z,66.68
2023-04-18T08:14:04.442Z,65.99
2023-04-18T08:16:33.188Z,64.80
2023-04-18T08:19:00.384Z,64.78
2023-04-18T08:21:27.691Z,64.13
2023-04-18T08:23:54.925Z,62.87
2023-04-18T08:26:22.264Z,63.74
2023-04-18T08:28:49.488Z,63.73
2023-04-18T08:31:16.801Z,61.27
2023-04-18T08:33:45.535Z,62.95
2023-04-18T08:36:12.741Z,61.96
2023-04-18T08:38:39.969Z,62.01
2023-04-18T08:41:07.964Z,62.67
2023-04-18T08:43:35.297Z,62.19
2023-04-18T08:46:02.516Z,61.51
2023-04-18T08:48:29.896Z,61.79
2023-04-18T08:50:58.832Z,62.08
2023-04-18T08:53:26.107Z,63.30
2023-04-18T08:55:54.610Z,63.76
2023-04-18T08:58:22.051Z,61.99
2023-04-18T09:00:51.127Z,63.15
2023-04-18T09:03:21.046Z,65.11
2023-04-18T09:06:06.071Z,63.06
2023-04-18T09:08:33.236Z,62.73
2023-04-18T09:11:24.441Z,63.46
2023-04-18T09:13:51.775Z,63.49
2023-04-18T09:16:18.979Z,67.24
2023-04-18T09:19:07.894Z,63.28
2023-04-18T09:21:37.674Z,63.10
2023-04-18T09:24:15.876Z,65.76
2023-04-18T09:26:43.239Z,66.35
2023-04-18T09:29:10.499Z,64.01
2023-04-18T09:31:38.557Z,64.96
2023-04-18T09:34:05.804Z,65.56
2023-04-18T09:36:33.121Z,65.86
2023-04-18T09:39:01.987Z,66.85
2023-04-18T09:41:29.226Z,67.67
2023-04-18T09:44:11.501Z,66.96
2023-04-18T09:46:40.706Z,65.85
2023-04-18T09:49:09.673Z,68.05
2023-04-18T09:51:38.393Z,66.63
2023-04-18T09:54:08.796Z,66.60
2023-04-18T09:56:35.837Z,67.78
2023-04-18T09:59:06.411Z,67.18
2023-04-18T10:01:33.664Z,66.53
2023-04-18T10:04:01.856Z,65.67
2023-04-18T10:06:29.272Z,64.83
2023-04-18T10:08:56.496Z,63.65
2023-04-18T10:11:25.217Z,64.35
2023-04-18T10:13:55.491Z,64.57
2023-04-18T10:16:22.768Z,65.66
2023-04-18T10:18:49.943Z,64.76
2023-04-18T10:21:17.210Z,65.99
2023-04-18T10:23:44.431Z,64.83
2023-04-18T10:26:11.658Z,64.14
2023-04-18T10:28:53.835Z,66.39
2023-04-18T10:31:21.764Z,66.21
2023-04-18T10:34:00.750Z,66.25
2023-04-18T10:36:31.706Z,64.17
2023-04-18T10:39:00.563Z,65.07
2023-04-18T10:41:28.358Z,66.14
2023-04-18T10:44:16.498Z,65.38
2023-04-18T10:46:58.883Z,64.94
2023-04-18T10:49:27.943Z,65.74
2023-04-18T10:51:56.676Z,62.17
2023-04-18T10:54:27.182Z,60.99
2023-04-18T10:56:54.480Z,60.54
2023-04-18T10:59:23.416Z,59.72
2023-04-18T11:01:50.552Z,62.81
2023-04-18T11:04:18.315Z,58.20
2023-04-18T11:06:49.027Z,57.78
2023-04-18T11:09:16.257Z,60.91
2023-04-18T11:11:43.426Z,59.79
2023-04-18T11:14:10.610Z,59.59
2023-04-18T11:16:40.136Z,58.38
2023-04-18T11:19:20.516Z,58.38
2023-04-18T11:21:47.811Z,59.06
2023-04-18T11:24:21.867Z,58.18
2023-04-18T11:26:49.243Z,58.08
2023-04-18T11:29:20.049Z,60.78
2023-04-18T11:31:51.944Z,62.09
2023-04-18T11:34:19.267Z,61.17
2023-04-18T11:36:49.226Z,60.62
2023-04-18T11:39:16.454Z,59.47
2023-04-18T11:41:43.705Z,62.13
2023-04-18T11:44:10.900Z,62.86
2023-04-18T11:46:38.438Z,63.45
2023-04-18T11:49:07.093Z,62.73
2023-04-18T11:51:34.735Z,64.44
2023-04-18T11:54:02.025Z,62.52
2023-04-18T11:56:29.294Z,64.86
2023-04-18T11:58:56.487Z,61.94
2023-04-18T12:01:24.363Z,63.94
2023-04-18T12:04:01.589Z,62.16
2023-04-18T12:06:45.265Z,63.66
2023-04-18T12:09:13.947Z,61.83
2023-04-18T12:11:41.525Z,59.59
2023-04-18T12:14:19.743Z,57.10
2023-04-18T12:16:47.018Z,56.94
2023-04-18T12:19:14.423Z,56.17
2023-04-18T12:21:56.214Z,55.13
2023-04-18T12:24:26.215Z,58.02
2023-04-18T12:26:53.305Z,55.85
2023-04-18T12:29:20.496Z,57.20
2023-04-18T12:31:47.671Z,53.91
2023-04-18T12:34:15.129Z,53.36
2023-04-18T12:36:42.667Z,57.76
2023-04-18T12:39:11.387Z,57.13
2023-04-18T12:41:38.682Z,56.23
2023-04-18T12:44:06.169Z,56.16
2023-04-18T12:46:33.496Z,57.04
2023-04-18T12:49:00.760Z,57.47
2023-04-18T12:51:28.144Z,55.19
2023-04-18T12:53:55.444Z,56.88
2023-04-18T12:56:24.120Z,56.77
2023-04-18T12:58:51.421Z,52.13
2023-04-18T13:01:18.873Z,49.53
2023-04-18T13:03:51.060Z,49.86
2023-04-18T13:06:23.867Z,49.48
2023-04-18T13:08:51.272Z,47.68
2023-04-18T13:11:18.519Z,49.92
2023-04-18T13:13:47.231Z,51.42
2023-04-18T13:16:14.421Z,47.92
2023-04-18T13:18:41.652Z,45.94
2023-04-18T13:21:08.844Z,47.89
2023-04-18T13:23:36.232Z,47.59
2023-04-18T13:26:03.500Z,47.67
2023-04-18T13:28:30.856Z,45.53
2023-04-18T13:30:59.542Z,43.69
2023-04-18T13:33:26.830Z,44.93
2023-04-18T13:35:54.355Z,43.45
2023-04-18T13:38:21.602Z,43.26
2023-04-18T13:40:52.037Z,44.64
2023-04-18T13:43:26.042Z,45.03
2023-04-18T13:45:54.691Z,43.55
2023-04-18T13:48:23.362Z,43.26
2023-04-18T13:50:50.916Z,43.33
2023-04-18T13:53:18.164Z,41.21
2023-04-18T13:55:45.473Z,40.50
2023-04-18T13:58:12.723Z,39.23
2023-04-18T14:00:39.935Z,39.97
2023-04-18T14:03:07.276Z,39.06
2023-04-18T14:05:36.079Z,36.41
2023-04-18T14:08:03.285Z,35.85
2023-04-18T14:10:30.791Z,36.10
2023-04-18T14:12:57.968Z,36.20
2023-04-18T14:15:25.217Z,37.83
2023-04-18T14:17:52.466Z,38.69
2023-04-18T14:20:19.933Z,37.88
2023-04-18T14:22:51.523Z,37.85
2023-04-18T14:25:20.195Z,35.28
2023-04-18T14:27:47.767Z,36.02
2023-04-18T14:30:15.406Z,36.22
2023-04-18T14:32:42.955Z,37.28
2023-04-18T14:35:10.797Z,36.71
2023-04-18T14:37:38.063Z,36.38
2023-04-18T14:40:08.274Z,36.38
2023-04-18T14:42:35.546Z,35.66
2023-04-18T14:45:02.831Z,36.00
2023-04-18T14:47:30.242Z,35.83
2023-04-18T14:49:57.464Z,34.94
2023-04-18T14:52:24.799Z,32.78
2023-04-18T14:54:52.023Z,31.14
2023-04-18T14:57:20.791Z,31.44
2023-04-18T14:59:47.885Z,29.01
2023-04-18T15:02:15.181Z,31.53
2023-04-18T15:04:42.614Z,31.38
2023-04-18T15:07:09.956Z,27.45
2023-04-18T18:33:15.961Z,51.87
2023-04-18T18:35:43.184Z,51.53
2023-04-18T18:38:10.269Z,52.48
2023-04-18T18:40:37.433Z,52.92
2023-04-18T18:43:04.649Z,53.35
2023-04-18T18:45:31.797Z,53.55
2023-04-18T18:47:59.002Z,53.83
2023-04-18T18:50:27.603Z,54.31
2023-04-18T18:52:54.911Z,54.66
2023-04-18T18:55:22.381Z,55.07
2023-04-18T18:57:49.700Z,54.98
2023-04-18T19:00:17.099Z,56.32
2023-04-18T19:02:44.511Z,56.30
2023-04-18T19:05:11.737Z,56.71
2023-04-18T19:07:40.253Z,56.45
2023-04-18T19:10:09.133Z,56.99
2023-04-18T19:12:37.286Z,56.91
2023-04-18T19:15:05.288Z,57.14
2023-04-18T19:17:32.603Z,57.38
2023-04-18T19:19:59.751Z,58.31
2023-04-18T19:22:26.872Z,58.24
2023-04-18T19:24:55.433Z,58.67
2023-04-18T19:27:22.649Z,58.02
2023-04-18T19:29:49.870Z,57.81
2023-04-18T19:32:17.104Z,58.31
2023-04-18T19:34:44.272Z,58.55
2023-04-18T19:37:11.392Z,58.90
2023-04-18T19:39:38.586Z,59.24
2023-04-18T19:42:07.213Z,58.63
2023-04-18T19:44:34.322Z,59.35
2023-04-18T19:47:01.506Z,59.55
2023-04-18T19:49:28.622Z,60.21
2023-04-18T19:51:55.835Z,59.85
2023-04-18T19:54:22.954Z,60.25
2023-04-18T19:56:50.401Z,60.78
2023-04-18T19:59:19.010Z,60.93
2023-04-18T20:01:46.414Z,60.17
2023-04-18T20:04:13.781Z,60.98
2023-04-18T20:06:41.148Z,61.12
2023-04-18T20:09:08.390Z,60.91
2023-04-18T20:11:35.628Z,61.11
2023-04-18T20:14:02.827Z,61.12
2023-04-18T20:16:31.532Z,61.29
2023-04-18T20:18:58.895Z,60.84
2023-04-18T20:21:26.164Z,61.09
2023-04-18T20:23:53.392Z,60.70
2023-04-18T20:26:20.600Z,60.59
2023-04-18T20:28:47.817Z,60.67
2023-04-18T20:31:15.189Z,60.74
